Flight Track Log - Related Links

Times and Time Zones

All times are in EDT time to prevent confusion due to time zone crossing. See the FAO854 flight status page for this flight to view local times or setup timezone preferences in your user account.

Time Position Orientation Groundspeed Altitude Reporting Facility
EDT Latitude Longitude Course Direction KTS MPH feet Rate Location/Type
Fri 22:23:46 27.8833 -82.6833 180° South 179 206 800  Level Tampa TRACON
Fri 22:24:29 27.8500 -82.6833 180° South 188 216 2,200 2,059 Climbing Tampa TRACON
Fri 22:25:28 27.8000 -82.7000 196° South 213 245 4,300 1,866 Climbing Tampa TRACON
Fri 22:26:28 27.7833 -82.7833 257° West 284 327 5,900 1,951 Climbing Tampa TRACON
Fri 22:30:14 28.1039 -82.7725 North 356 410 13,600 2,035 Climbing Jacksonville Center
Fri 22:31:14 28.2083 -82.7867 353° North 368 423 15,600 2,150 Climbing Jacksonville Center
Fri 22:32:14 28.3189 -82.8078 350° North 387 445 17,900 1,950 Climbing Jacksonville Center
Fri 22:33:14 28.4275 -82.8289 350° North 393 452 19,500 1,700 Climbing Jacksonville Center
Fri 22:34:14 28.5422 -82.8525 350° North 398 458 21,300 1,750 Climbing Jacksonville Center
Fri 22:35:14 28.6550 -82.8783 349° North 405 466 23,000 1,700 Climbing Jacksonville Center
Fri 22:36:14 28.7844 -82.9044 350° North 418 481 24,700 1,500 Climbing Jacksonville Center
Fri 22:37:14 28.8992 -82.9328 348° North 423 487 26,000 1,500 Climbing Jacksonville Center
Fri 22:38:14 29.0181 -82.9567 350° North 428 493 27,700 1,500 Climbing Jacksonville Center
Fri 22:39:14 29.1350 -82.9853 348° North 428 493 29,000 1,350 Climbing Jacksonville Center
Fri 22:40:14 29.2519 -83.0117 349° North 428 493 30,400 1,100 Climbing Jacksonville Center
Fri 22:41:14 29.3667 -83.0381 349° North 428 493 31,200 750 Climbing Jacksonville Center
Fri 22:42:14 29.4814 -83.0667 348° North 428 493 31,900 350 Climbing Jacksonville Center
Fri 22:43:14 29.6003 -83.0931 349° North 428 493 31,900 50 Level Jacksonville Center
Fri 22:44:14 29.7172 -83.1197 349° North 428 493 32,000  Climbing Jacksonville Center
Fri 22:45:14 29.8342 -83.1489 348° North 428 493 31,900  Descending Jacksonville Center
Fri 22:46:14 29.9467 -83.1756 348° North 420 483 32,000 50 Climbing Jacksonville Center
Fri 22:47:14 30.0511 -83.1972 350° North 420 483 32,000  Level Jacksonville Center
Fri 22:48:14 30.1658 -83.2242 349° North 420 483 32,000  Level Jacksonville Center
Fri 22:49:14 30.2786 -83.2486 349° North 420 483 32,000  Level Jacksonville Center
Fri 22:50:14 30.3911 -83.2731 349° North 415 478 32,000 -50 Level Jacksonville Center
Fri 22:51:14 30.5061 -83.3025 348° North 415 478 31,900 -50 Descending Jacksonville Center
Fri 22:52:14 30.6208 -83.3294 349° North 415 478 31,900 50 Level Jacksonville Center
Fri 22:53:14 30.7333 -83.3567 348° North 415 478 32,000 50 Climbing Jacksonville Center
Fri 22:54:14 30.8419 -83.3789 350° North 409 471 32,000  Level Jacksonville Center
Fri 22:55:14 30.9525 -83.4061 348° North 409 471 32,000  Level Jacksonville Center
Fri 22:56:14 31.0672 -83.4333 349° North 409 471 32,000  Level Jacksonville Center
Fri 22:57:14 31.1778 -83.4608 348° North 409 471 32,000  Level Jacksonville Center
Fri 22:58:14 31.2925 -83.4858 349° North 409 471 32,000  Level Jacksonville Center
Fri 23:00:00 31.4635 -83.5284 348° North  Level FlightAware Approximate
Fri 23:07:00 32.1973 -83.7049 349° North  Level FlightAware Approximate
Fri 23:08:00 32.3023 -83.7299 349° North  Level FlightAware Approximate
Fri 23:09:00 32.4071 -83.7555 348° North  Level FlightAware Approximate
Fri 23:10:00 32.5118 -83.7813 348° North  Level FlightAware Approximate
Fri 23:11:00 32.6166 -83.8071 348° North  Level FlightAware Approximate
Fri 23:12:00 32.7214 -83.8330 348° North  Level FlightAware Approximate
Fri 23:13:00 32.8261 -83.8589 348° North  Level FlightAware Approximate
Fri 23:14:00 32.9309 -83.8849 348° North  Level FlightAware Approximate
Fri 23:15:00 33.0356 -83.9110 348° North  Level FlightAware Approximate
Fri 23:16:00 33.1404 -83.9371 348° North  Level FlightAware Approximate
Fri 23:17:00 33.2451 -83.9633 348° North  Level FlightAware Approximate
Fri 23:18:00 33.3499 -83.9895 348° North  Level FlightAware Approximate
Fri 23:19:00 33.4546 -84.0158 348° North  Level FlightAware Approximate
Fri 23:20:00 33.5593 -84.0422 348° North  Level FlightAware Approximate
Fri 23:21:00 33.6641 -84.0686 348° North  Level FlightAware Approximate
Fri 23:22:00 33.7688 -84.0952 348° North  Level FlightAware Approximate
Fri 23:23:00 33.8735 -84.1217 348° North  Level FlightAware Approximate
Fri 23:24:00 33.9782 -84.1484 348° North  Level FlightAware Approximate
Fri 23:25:00 34.0836 -84.1667 348° North  Level FlightAware Approximate
Fri 23:26:00 34.1882 -84.1941 348° North  Level FlightAware Approximate
Fri 23:27:00 34.2928 -84.2216 348° North  Level FlightAware Approximate
Fri 23:28:00 34.3973 -84.2491 348° North  Level FlightAware Approximate
Fri 23:29:00 34.5019 -84.2767 348° North  Level FlightAware Approximate
Fri 23:30:00 34.6064 -84.3044 348° North  Level FlightAware Approximate
Fri 23:31:00 34.7110 -84.3321 348° North  Level FlightAware Approximate
Fri 23:32:00 34.8155 -84.3599 348° North  Level FlightAware Approximate
Fri 23:33:00 34.9201 -84.3878 348° North  Level FlightAware Approximate
Fri 23:34:00 35.0246 -84.4157 348° North  Level FlightAware Approximate
Fri 23:35:00 35.1291 -84.4437 348° North  Level FlightAware Approximate
Fri 23:36:00 35.2337 -84.4718 348° North  Level FlightAware Approximate
Fri 23:37:00 35.3382 -84.5000 348° North  Level FlightAware Approximate
Fri 23:38:00 35.4427 -84.5280 348° North  Level FlightAware Approximate
Fri 23:39:00 35.5473 -84.5557 348° North  Level FlightAware Approximate
Fri 23:40:00 35.6519 -84.5835 348° North  Level FlightAware Approximate
Fri 23:41:00 35.7565 -84.6114 348° North  Level FlightAware Approximate
Fri 23:42:00 35.8610 -84.6394 348° North  Level FlightAware Approximate
Fri 23:43:00 35.9656 -84.6674 348° North  Level FlightAware Approximate
Fri 23:44:00 36.0702 -84.6956 348° North  Level FlightAware Approximate
Fri 23:45:00 36.1748 -84.7238 348° North  Level FlightAware Approximate
Fri 23:46:00 36.2793 -84.7520 348° North  Level FlightAware Approximate
Fri 23:47:00 36.3839 -84.7799 348° North  Level FlightAware Approximate
Fri 23:48:00 36.4886 -84.8073 348° North  Level FlightAware Approximate
Fri 23:49:00 36.5933 -84.8348 348° North  Level FlightAware Approximate
Fri 23:50:00 36.6980 -84.8624 348° North  Level FlightAware Approximate
Fri 23:51:00 36.8027 -84.8900 348° North  Level FlightAware Approximate
Fri 23:52:00 36.9074 -84.9177 348° North  Level FlightAware Approximate
Fri 23:53:00 37.0121 -84.9455 348° North  Level FlightAware Approximate
Fri 23:54:00 37.1168 -84.9734 348° North  Level FlightAware Approximate
Fri 23:55:00 37.2214 -85.0014 348° North  Level FlightAware Approximate
Fri 23:56:00 37.3261 -85.0294 348° North  Level FlightAware Approximate
Fri 23:57:00 37.4308 -85.0575 348° North  Level FlightAware Approximate
Fri 23:58:00 37.5354 -85.0857 348° North  Level FlightAware Approximate
Fri 23:59:00 37.6400 -85.1140 348° North  Level FlightAware Approximate
Sat 00:00:00 37.7447 -85.1422 348° North  Level FlightAware Approximate
Sat 00:01:00 37.8493 -85.1705 348° North  Level FlightAware Approximate
Sat 00:02:00 37.9540 -85.1989 348° North  Level FlightAware Approximate
Sat 00:03:00 38.0586 -85.2273 348° North  Level FlightAware Approximate
Sat 00:04:00 38.1632 -85.2559 348° North  Level FlightAware Approximate
Sat 00:05:00 38.2679 -85.2845 348° North  Level FlightAware Approximate
Sat 00:06:00 38.3725 -85.3132 348° North  Level FlightAware Approximate
Sat 00:07:00 38.4771 -85.3419 348° North  Level FlightAware Approximate
Sat 00:08:00 38.5816 -85.3711 347° North  Level FlightAware Approximate
Sat 00:09:00 38.6859 -85.4018 347° North  Level FlightAware Approximate
Sat 00:10:00 38.7902 -85.4327 347° North  Level FlightAware Approximate
Sat 00:11:00 38.8944 -85.4637 347° North  Level FlightAware Approximate
Sat 00:12:00 38.9987 -85.4947 347° North  Level FlightAware Approximate
Sat 00:13:00 39.1029 -85.5258 347° North  Level FlightAware Approximate
Sat 00:14:00 39.2072 -85.5571 347° North  Level FlightAware Approximate
Sat 00:15:00 39.3114 -85.5884 347° North  Level FlightAware Approximate
Sat 00:16:00 39.4161 -85.6165 349° North  Level FlightAware Approximate
Sat 00:17:00 39.5206 -85.6464 348° North  Level FlightAware Approximate
Sat 00:18:00 39.6233 -85.6853 347° North  Level FlightAware Approximate
Sat 00:19:00 39.7276 -85.7165 347° North  Level FlightAware Approximate
Sat 00:20:00 39.8319 -85.7478 347° North  Level FlightAware Approximate
Sat 00:21:00 39.9361 -85.7792 347° North  Level FlightAware Approximate
Sat 00:22:00 40.0412 -85.8039 339° North  Level FlightAware Approximate
Sat 00:23:00 40.1450 -85.8362 349° North  Level FlightAware Approximate
Sat 00:24:00 40.2498 -85.8649 347° North  Level FlightAware Approximate
Sat 00:25:00 40.3541 -85.8962 347° North  Level FlightAware Approximate
Sat 00:26:00 40.4585 -85.9269 347° North  Level FlightAware Approximate
Sat 00:27:00 40.5629 -85.9576 347° North  Level FlightAware Approximate
Sat 00:28:00 40.6674 -85.9883 348° North  Level FlightAware Approximate
Sat 00:29:00 40.7719 -86.0184 346° North  Level FlightAware Approximate
Sat 00:30:00 40.8757 -86.0530 346° North  Level FlightAware Approximate
Sat 00:31:00 40.9764 -86.0921 346° North  Level FlightAware Approximate
Sat 00:32:00 41.0805 -86.1243 349° North  Level FlightAware Approximate
Sat 00:33:00 41.1851 -86.1543 347° North  Level FlightAware Approximate
Sat 00:34:00 41.2894 -86.1864 347° North  Level FlightAware Approximate
Sat 00:35:00 41.3937 -86.2181 347° North  Level FlightAware Approximate
Sat 00:36:00 41.4981 -86.2494 347° North  Level FlightAware Approximate
Sat 00:37:00 41.6023 -86.2809 343° North  Level FlightAware Approximate
Sat 00:38:00 41.7000 -86.3167 323° Northwest  Level FlightAware Approximate
Sat 00:39:00 41.7082 -86.3173 323° Northwest  Level Estimated
Sat 00:40:00 41.7082 -86.3173 323° Northwest  Level Estimated
Sat 00:41:00 41.7082 -86.3173 323° Northwest  Level Estimated
Sat 00:42:00 41.7082 -86.3173 323° Northwest  Level Estimated
Sat 00:43:00 41.7082 -86.3173 323° Northwest  Level Estimated
Sat 00:44:00 41.7082 -86.3173 323° Northwest  Level Estimated
Sat 00:45:00 41.7082 -86.3173 323° Northwest  Level Estimated
Sat 00:46:00 41.7082 -86.3173 323° Northwest  Level Estimated
Sat 00:47:00 41.7082 -86.3173 323° Northwest  Level Estimated
Sat 00:48:00 41.7082 -86.3173 323° Northwest  Level Estimated
Sat 00:49:00 41.7082 -86.3173 323° Northwest  Level Estimated
Sat 00:50:00 41.7082 -86.3173 323° Northwest  Level Estimated
Sat 00:51:00 41.7082 -86.3173 323° Northwest  Level Estimated
Sat 00:52:00 41.7082 -86.3173 323° Northwest  Level Estimated

Login

Don't have an account? Register now (free) for customized features, flight alerts, and more!